sensor_id;sensor_type;location;lat;lon;timestamp;P1;durP1;ratioP1;P2;durP2;ratioP2
4462;SDS011;2244;50.200;8.220;2023-05-10T00:01:28;9.40;;;0.70;;
4462;SDS011;2244;50.200;8.220;2023-05-10T00:03:55;7.03;;;0.60;;
4462;SDS011;2244;50.200;8.220;2023-05-10T00:06:22;8.53;;;0.60;;
4462;SDS011;2244;50.200;8.220;2023-05-10T00:08:50;7.70;;;0.70;;
4462;SDS011;2244;50.200;8.220;2023-05-10T00:11:17;7.13;;;0.70;;
4462;SDS011;2244;50.200;8.220;2023-05-10T00:13:46;7.27;;;0.70;;
4462;SDS011;2244;50.200;8.220;2023-05-10T00:16:14;7.50;;;0.83;;
4462;SDS011;2244;50.200;8.220;2023-05-10T00:18:41;18.43;;;1.00;;
4462;SDS011;2244;50.200;8.220;2023-05-10T00:21:08;7.17;;;0.60;;
4462;SDS011;2244;50.200;8.220;2023-05-10T00:23:36;8.73;;;0.90;;
4462;SDS011;2244;50.200;8.220;2023-05-10T00:26:03;7.40;;;0.70;;
4462;SDS011;2244;50.200;8.220;2023-05-10T00:28:31;8.33;;;0.60;;
4462;SDS011;2244;50.200;8.220;2023-05-10T00:30:58;8.23;;;0.63;;
4462;SDS011;2244;50.200;8.220;2023-05-10T00:33:26;8.10;;;0.57;;
4462;SDS011;2244;50.200;8.220;2023-05-10T00:35:53;7.43;;;0.70;;
4462;SDS011;2244;50.200;8.220;2023-05-10T00:38:21;8.53;;;0.77;;
4462;SDS011;2244;50.200;8.220;2023-05-10T00:40:48;7.00;;;0.60;;
4462;SDS011;2244;50.200;8.220;2023-05-10T00:43:16;7.30;;;0.60;;
4462;SDS011;2244;50.200;8.220;2023-05-10T00:45:43;7.07;;;0.67;;
4462;SDS011;2244;50.200;8.220;2023-05-10T00:48:11;7.20;;;0.60;;
4462;SDS011;2244;50.200;8.220;2023-05-10T00:50:38;9.70;;;0.87;;
4462;SDS011;2244;50.200;8.220;2023-05-10T00:53:06;8.20;;;0.70;;
4462;SDS011;2244;50.200;8.220;2023-05-10T00:55:34;10.93;;;0.90;;
4462;SDS011;2244;50.200;8.220;2023-05-10T00:58:01;8.23;;;0.90;;
4462;SDS011;2244;50.200;8.220;2023-05-10T01:00:29;7.50;;;0.83;;
4462;SDS011;2244;50.200;8.220;2023-05-10T01:02:56;7.27;;;0.80;;
4462;SDS011;2244;50.200;8.220;2023-05-10T01:05:24;9.07;;;0.80;;
4462;SDS011;2244;50.200;8.220;2023-05-10T01:07:53;7.23;;;0.80;;
4462;SDS011;2244;50.200;8.220;2023-05-10T01:10:20;7.70;;;0.70;;
4462;SDS011;2244;50.200;8.220;2023-05-10T01:12:48;8.53;;;1.00;;
4462;SDS011;2244;50.200;8.220;2023-05-10T01:15:15;8.23;;;0.80;;
4462;SDS011;2244;50.200;8.220;2023-05-10T01:17:44;8.33;;;0.90;;
4462;SDS011;2244;50.200;8.220;2023-05-10T01:20:12;7.20;;;0.80;;
4462;SDS011;2244;50.200;8.220;2023-05-10T01:23:45;8.97;;;1.00;;
4462;SDS011;2244;50.200;8.220;2023-05-10T01:25:26;7.97;;;0.90;;
4462;SDS011;2244;50.200;8.220;2023-05-10T01:27:57;7.50;;;0.90;;
4462;SDS011;2244;50.200;8.220;2023-05-10T01:33:06;8.17;;;0.93;;
4462;SDS011;2244;50.200;8.220;2023-05-10T01:36:14;9.83;;;1.00;;
4462;SDS011;2244;50.200;8.220;2023-05-10T01:43:17;9.23;;;1.10;;
4462;SDS011;2244;50.200;8.220;2023-05-10T01:46:02;7.50;;;0.80;;
4462;SDS011;2244;50.200;8.220;2023-05-10T01:48:31;8.23;;;0.87;;
4462;SDS011;2244;50.200;8.220;2023-05-10T01:50:59;9.47;;;0.80;;
4462;SDS011;2244;50.200;8.220;2023-05-10T01:53:27;10.37;;;0.90;;
4462;SDS011;2244;50.200;8.220;2023-05-10T01:55:55;8.47;;;0.73;;
4462;SDS011;2244;50.200;8.220;2023-05-10T01:58:23;10.63;;;0.83;;
4462;SDS011;2244;50.200;8.220;2023-05-10T02:00:51;8.97;;;1.10;;
4462;SDS011;2244;50.200;8.220;2023-05-10T02:03:23;8.90;;;0.90;;
4462;SDS011;2244;50.200;8.220;2023-05-10T02:05:50;7.40;;;1.10;;
4462;SDS011;2244;50.200;8.220;2023-05-10T02:08:19;8.80;;;0.80;;
4462;SDS011;2244;50.200;8.220;2023-05-10T02:10:49;7.10;;;0.70;;
4462;SDS011;2244;50.200;8.220;2023-05-10T02:13:17;7.47;;;0.90;;
4462;SDS011;2244;50.200;8.220;2023-05-10T02:15:46;7.30;;;0.80;;
4462;SDS011;2244;50.200;8.220;2023-05-10T02:18:13;8.97;;;0.70;;
4462;SDS011;2244;50.200;8.220;2023-05-10T02:20:42;7.80;;;0.93;;
4462;SDS011;2244;50.200;8.220;2023-05-10T02:23:10;8.47;;;0.90;;
4462;SDS011;2244;50.200;8.220;2023-05-10T02:25:38;7.30;;;1.00;;
4462;SDS011;2244;50.200;8.220;2023-05-10T02:28:06;7.50;;;1.00;;
4462;SDS011;2244;50.200;8.220;2023-05-10T02:30:34;10.63;;;1.10;;
4462;SDS011;2244;50.200;8.220;2023-05-10T02:33:01;7.30;;;0.90;;
4462;SDS011;2244;50.200;8.220;2023-05-10T02:35:30;8.40;;;1.47;;
4462;SDS011;2244;50.200;8.220;2023-05-10T02:37:59;9.20;;;1.20;;
4462;SDS011;2244;50.200;8.220;2023-05-10T02:40:27;8.00;;;1.40;;
4462;SDS011;2244;50.200;8.220;2023-05-10T02:42:56;8.20;;;1.60;;
4462;SDS011;2244;50.200;8.220;2023-05-10T02:45:25;8.47;;;1.30;;
4462;SDS011;2244;50.200;8.220;2023-05-10T02:47:52;18.07;;;1.43;;
4462;SDS011;2244;50.200;8.220;2023-05-10T02:50:20;7.60;;;1.20;;
4462;SDS011;2244;50.200;8.220;2023-05-10T02:52:51;9.30;;;1.30;;
4462;SDS011;2244;50.200;8.220;2023-05-10T02:55:21;10.00;;;1.30;;
4462;SDS011;2244;50.200;8.220;2023-05-10T02:57:50;9.03;;;1.30;;
4462;SDS011;2244;50.200;8.220;2023-05-10T03:00:17;9.07;;;1.40;;
4462;SDS011;2244;50.200;8.220;2023-05-10T03:02:45;12.17;;;1.20;;
4462;SDS011;2244;50.200;8.220;2023-05-10T03:05:12;8.63;;;1.17;;
4462;SDS011;2244;50.200;8.220;2023-05-10T03:07:39;9.43;;;1.40;;
4462;SDS011;2244;50.200;8.220;2023-05-10T03:10:07;7.77;;;1.50;;
4462;SDS011;2244;50.200;8.220;2023-05-10T03:12:41;11.40;;;1.57;;
4462;SDS011;2244;50.200;8.220;2023-05-10T03:15:09;12.10;;;1.53;;
4462;SDS011;2244;50.200;8.220;2023-05-10T03:17:49;10.67;;;1.40;;
4462;SDS011;2244;50.200;8.220;2023-05-10T03:20:20;8.93;;;1.60;;
4462;SDS011;2244;50.200;8.220;2023-05-10T03:22:47;14.80;;;1.67;;
4462;SDS011;2244;50.200;8.220;2023-05-10T03:25:15;9.80;;;1.80;;
4462;SDS011;2244;50.200;8.220;2023-05-10T03:27:43;8.93;;;1.87;;
4462;SDS011;2244;50.200;8.220;2023-05-10T03:30:11;9.87;;;2.00;;
4462;SDS011;2244;50.200;8.220;2023-05-10T03:32:39;9.57;;;2.60;;
4462;SDS011;2244;50.200;8.220;2023-05-10T03:35:07;10.87;;;2.17;;
4462;SDS011;2244;50.200;8.220;2023-05-10T03:37:35;8.90;;;2.10;;
4462;SDS011;2244;50.200;8.220;2023-05-10T03:40:02;11.17;;;2.50;;
4462;SDS011;2244;50.200;8.220;2023-05-10T03:42:30;11.23;;;2.67;;
4462;SDS011;2244;50.200;8.220;2023-05-10T03:44:57;9.63;;;2.70;;
4462;SDS011;2244;50.200;8.220;2023-05-10T03:47:24;9.33;;;2.50;;
4462;SDS011;2244;50.200;8.220;2023-05-10T03:49:52;10.40;;;2.67;;
4462;SDS011;2244;50.200;8.220;2023-05-10T03:52:19;11.83;;;3.10;;
4462;SDS011;2244;50.200;8.220;2023-05-10T03:54:47;11.73;;;2.87;;
4462;SDS011;2244;50.200;8.220;2023-05-10T03:57:14;10.37;;;3.00;;
4462;SDS011;2244;50.200;8.220;2023-05-10T03:59:41;10.00;;;2.70;;
4462;SDS011;2244;50.200;8.220;2023-05-10T04:02:09;9.73;;;3.13;;
4462;SDS011;2244;50.200;8.220;2023-05-10T04:04:36;11.00;;;3.10;;
4462;SDS011;2244;50.200;8.220;2023-05-10T04:07:03;16.00;;;3.27;;
4462;SDS011;2244;50.200;8.220;2023-05-10T04:09:31;9.90;;;3.30;;
4462;SDS011;2244;50.200;8.220;2023-05-10T04:11:59;10.50;;;2.90;;
4462;SDS011;2244;50.200;8.220;2023-05-10T04:14:28;11.97;;;2.97;;
4462;SDS011;2244;50.200;8.220;2023-05-10T04:16:55;11.07;;;3.50;;
4462;SDS011;2244;50.200;8.220;2023-05-10T04:19:22;14.30;;;3.17;;
4462;SDS011;2244;50.200;8.220;2023-05-10T04:21:50;9.90;;;2.97;;
4462;SDS011;2244;50.200;8.220;2023-05-10T04:24:17;11.07;;;2.73;;
4462;SDS011;2244;50.200;8.220;2023-05-10T04:26:45;12.53;;;3.40;;
4462;SDS011;2244;50.200;8.220;2023-05-10T04:29:12;12.03;;;2.53;;
4462;SDS011;2244;50.200;8.220;2023-05-10T04:31:39;11.93;;;2.40;;
4462;SDS011;2244;50.200;8.220;2023-05-10T04:34:07;8.93;;;2.33;;
4462;SDS011;2244;50.200;8.220;2023-05-10T04:36:34;9.20;;;2.77;;
4462;SDS011;2244;50.200;8.220;2023-05-10T04:39:03;8.97;;;2.63;;
4462;SDS011;2244;50.200;8.220;2023-05-10T04:41:31;8.60;;;2.40;;
4462;SDS011;2244;50.200;8.220;2023-05-10T04:43:58;11.00;;;2.90;;
4462;SDS011;2244;50.200;8.220;2023-05-10T04:46:26;9.60;;;2.07;;
4462;SDS011;2244;50.200;8.220;2023-05-10T04:48:53;12.73;;;2.63;;
4462;SDS011;2244;50.200;8.220;2023-05-10T04:51:20;9.23;;;2.13;;
4462;SDS011;2244;50.200;8.220;2023-05-10T04:53:48;15.70;;;2.70;;
4462;SDS011;2244;50.200;8.220;2023-05-10T04:56:17;14.43;;;3.07;;
4462;SDS011;2244;50.200;8.220;2023-05-10T04:58:44;9.50;;;2.40;;
4462;SDS011;2244;50.200;8.220;2023-05-10T05:01:12;9.63;;;2.90;;
4462;SDS011;2244;50.200;8.220;2023-05-10T05:03:39;9.03;;;2.77;;
4462;SDS011;2244;50.200;8.220;2023-05-10T05:06:07;11.93;;;3.17;;
4462;SDS011;2244;50.200;8.220;2023-05-10T05:08:34;10.60;;;2.63;;
4462;SDS011;2244;50.200;8.220;2023-05-10T05:11:02;12.43;;;3.10;;
4462;SDS011;2244;50.200;8.220;2023-05-10T05:13:29;12.67;;;3.23;;
4462;SDS011;2244;50.200;8.220;2023-05-10T05:15:57;12.43;;;3.53;;
4462;SDS011;2244;50.200;8.220;2023-05-10T05:18:24;15.83;;;3.93;;
4462;SDS011;2244;50.200;8.220;2023-05-10T05:20:52;11.10;;;3.43;;
4462;SDS011;2244;50.200;8.220;2023-05-10T05:23:19;9.67;;;3.40;;
4462;SDS011;2244;50.200;8.220;2023-05-10T05:25:47;10.80;;;3.67;;
4462;SDS011;2244;50.200;8.220;2023-05-10T05:28:15;14.67;;;3.57;;
4462;SDS011;2244;50.200;8.220;2023-05-10T05:30:42;9.93;;;3.00;;
4462;SDS011;2244;50.200;8.220;2023-05-10T05:33:09;9.60;;;2.97;;
4462;SDS011;2244;50.200;8.220;2023-05-10T05:35:37;12.20;;;3.97;;
4462;SDS011;2244;50.200;8.220;2023-05-10T05:38:04;11.90;;;3.10;;
4462;SDS011;2244;50.200;8.220;2023-05-10T05:40:32;10.73;;;3.10;;
4462;SDS011;2244;50.200;8.220;2023-05-10T05:42:59;9.60;;;3.20;;
4462;SDS011;2244;50.200;8.220;2023-05-10T05:45:27;9.20;;;2.80;;
4462;SDS011;2244;50.200;8.220;2023-05-10T05:47:54;9.30;;;2.93;;
4462;SDS011;2244;50.200;8.220;2023-05-10T05:50:22;11.43;;;3.20;;
4462;SDS011;2244;50.200;8.220;2023-05-10T05:52:49;11.20;;;3.50;;
4462;SDS011;2244;50.200;8.220;2023-05-10T05:55:17;9.20;;;2.50;;
4462;SDS011;2244;50.200;8.220;2023-05-10T05:57:45;9.73;;;2.77;;
4462;SDS011;2244;50.200;8.220;2023-05-10T06:00:12;9.73;;;2.50;;
4462;SDS011;2244;50.200;8.220;2023-05-10T06:02:40;12.00;;;2.70;;
4462;SDS011;2244;50.200;8.220;2023-05-10T06:05:08;11.87;;;2.07;;
4462;SDS011;2244;50.200;8.220;2023-05-10T06:07:35;13.90;;;2.67;;
4462;SDS011;2244;50.200;8.220;2023-05-10T06:10:03;11.90;;;2.33;;
4462;SDS011;2244;50.200;8.220;2023-05-10T06:12:30;10.73;;;2.53;;
4462;SDS011;2244;50.200;8.220;2023-05-10T06:14:58;11.23;;;2.43;;
4462;SDS011;2244;50.200;8.220;2023-05-10T06:17:25;10.03;;;1.97;;
4462;SDS011;2244;50.200;8.220;2023-05-10T06:19:52;8.67;;;2.10;;
4462;SDS011;2244;50.200;8.220;2023-05-10T06:22:20;8.73;;;1.80;;
4462;SDS011;2244;50.200;8.220;2023-05-10T06:24:49;13.20;;;1.90;;
4462;SDS011;2244;50.200;8.220;2023-05-10T06:27:16;11.17;;;2.50;;
4462;SDS011;2244;50.200;8.220;2023-05-10T06:29:43;7.90;;;1.80;;
4462;SDS011;2244;50.200;8.220;2023-05-10T06:32:11;10.47;;;1.93;;
4462;SDS011;2244;50.200;8.220;2023-05-10T06:34:38;9.10;;;2.10;;
4462;SDS011;2244;50.200;8.220;2023-05-10T06:37:06;8.70;;;2.20;;
4462;SDS011;2244;50.200;8.220;2023-05-10T06:39:33;9.00;;;2.27;;
4462;SDS011;2244;50.200;8.220;2023-05-10T06:42:00;9.37;;;1.93;;
4462;SDS011;2244;50.200;8.220;2023-05-10T06:44:29;8.50;;;2.10;;
4462;SDS011;2244;50.200;8.220;2023-05-10T06:46:57;10.93;;;3.10;;
4462;SDS011;2244;50.200;8.220;2023-05-10T06:49:24;8.77;;;2.30;;
4462;SDS011;2244;50.200;8.220;2023-05-10T06:51:52;15.30;;;2.47;;
4462;SDS011;2244;50.200;8.220;2023-05-10T06:54:20;13.73;;;2.70;;
4462;SDS011;2244;50.200;8.220;2023-05-10T06:56:47;15.83;;;2.40;;
4462;SDS011;2244;50.200;8.220;2023-05-10T06:59:14;9.63;;;2.20;;
4462;SDS011;2244;50.200;8.220;2023-05-10T07:01:43;14.67;;;2.90;;
4462;SDS011;2244;50.200;8.220;2023-05-10T07:04:10;11.93;;;2.40;;
4462;SDS011;2244;50.200;8.220;2023-05-10T07:06:37;9.57;;;2.20;;
4462;SDS011;2244;50.200;8.220;2023-05-10T07:09:05;10.83;;;2.53;;
4462;SDS011;2244;50.200;8.220;2023-05-10T07:11:34;10.43;;;2.20;;
4462;SDS011;2244;50.200;8.220;2023-05-10T07:14:01;10.00;;;2.33;;
4462;SDS011;2244;50.200;8.220;2023-05-10T07:16:29;12.63;;;2.43;;
4462;SDS011;2244;50.200;8.220;2023-05-10T07:18:56;9.57;;;2.30;;
4462;SDS011;2244;50.200;8.220;2023-05-10T07:21:23;10.70;;;2.80;;
4462;SDS011;2244;50.200;8.220;2023-05-10T07:23:51;9.63;;;2.07;;
4462;SDS011;2244;50.200;8.220;2023-05-10T07:26:19;10.23;;;2.57;;
4462;SDS011;2244;50.200;8.220;2023-05-10T07:28:47;11.53;;;2.43;;
4462;SDS011;2244;50.200;8.220;2023-05-10T07:31:14;10.80;;;2.63;;
4462;SDS011;2244;50.200;8.220;2023-05-10T07:33:42;17.10;;;2.33;;
4462;SDS011;2244;50.200;8.220;2023-05-10T07:36:09;9.30;;;2.20;;
4462;SDS011;2244;50.200;8.220;2023-05-10T07:38:36;9.20;;;2.17;;
4462;SDS011;2244;50.200;8.220;2023-05-10T07:41:06;10.67;;;2.20;;
4462;SDS011;2244;50.200;8.220;2023-05-10T07:43:33;12.53;;;2.60;;
4462;SDS011;2244;50.200;8.220;2023-05-10T07:46:00;9.90;;;2.43;;
4462;SDS011;2244;50.200;8.220;2023-05-10T07:48:28;14.00;;;2.60;;
4462;SDS011;2244;50.200;8.220;2023-05-10T07:50:55;10.50;;;2.80;;
4462;SDS011;2244;50.200;8.220;2023-05-10T07:53:23;9.13;;;2.40;;
4462;SDS011;2244;50.200;8.220;2023-05-10T07:55:50;14.77;;;3.13;;
4462;SDS011;2244;50.200;8.220;2023-05-10T07:58:18;9.30;;;2.37;;
4462;SDS011;2244;50.200;8.220;2023-05-10T08:00:46;8.90;;;2.50;;
4462;SDS011;2244;50.200;8.220;2023-05-10T08:03:13;11.50;;;2.87;;
4462;SDS011;2244;50.200;8.220;2023-05-10T08:05:41;15.60;;;2.80;;
4462;SDS011;2244;50.200;8.220;2023-05-10T08:08:08;8.90;;;2.53;;
4462;SDS011;2244;50.200;8.220;2023-05-10T08:10:36;10.93;;;2.77;;
4462;SDS011;2244;50.200;8.220;2023-05-10T08:13:03;12.10;;;3.17;;
4462;SDS011;2244;50.200;8.220;2023-05-10T08:15:30;10.67;;;2.70;;
4462;SDS011;2244;50.200;8.220;2023-05-10T08:17:58;12.30;;;3.17;;
4462;SDS011;2244;50.200;8.220;2023-05-10T08:20:25;12.70;;;3.20;;
4462;SDS011;2244;50.200;8.220;2023-05-10T08:22:53;9.33;;;2.40;;
4462;SDS011;2244;50.200;8.220;2023-05-10T08:25:21;16.53;;;2.67;;
4462;SDS011;2244;50.200;8.220;2023-05-10T08:27:48;9.97;;;2.53;;
4462;SDS011;2244;50.200;8.220;2023-05-10T08:30:16;12.07;;;2.70;;
4462;SDS011;2244;50.200;8.220;2023-05-10T08:32:43;13.93;;;2.87;;
4462;SDS011;2244;50.200;8.220;2023-05-10T08:35:11;9.93;;;2.30;;
4462;SDS011;2244;50.200;8.220;2023-05-10T08:37:38;10.00;;;2.47;;
4462;SDS011;2244;50.200;8.220;2023-05-10T08:40:06;12.73;;;2.83;;
4462;SDS011;2244;50.200;8.220;2023-05-10T08:42:34;16.90;;;3.50;;
4462;SDS011;2244;50.200;8.220;2023-05-10T08:45:04;13.17;;;3.03;;
4462;SDS011;2244;50.200;8.220;2023-05-10T08:47:32;14.87;;;3.10;;
4462;SDS011;2244;50.200;8.220;2023-05-10T08:49:59;11.33;;;3.17;;
4462;SDS011;2244;50.200;8.220;2023-05-10T08:52:27;10.07;;;2.70;;
4462;SDS011;2244;50.200;8.220;2023-05-10T08:54:55;12.50;;;2.87;;
4462;SDS011;2244;50.200;8.220;2023-05-10T08:57:22;11.43;;;2.40;;
4462;SDS011;2244;50.200;8.220;2023-05-10T08:59:50;15.03;;;2.90;;
4462;SDS011;2244;50.200;8.220;2023-05-10T09:02:18;16.17;;;2.90;;
4462;SDS011;2244;50.200;8.220;2023-05-10T09:04:45;11.33;;;2.73;;
4462;SDS011;2244;50.200;8.220;2023-05-10T09:07:13;9.30;;;2.20;;
4462;SDS011;2244;50.200;8.220;2023-05-10T09:09:40;9.50;;;2.30;;
4462;SDS011;2244;50.200;8.220;2023-05-10T09:12:07;9.97;;;2.27;;
4462;SDS011;2244;50.200;8.220;2023-05-10T09:14:36;9.70;;;2.50;;
4462;SDS011;2244;50.200;8.220;2023-05-10T09:17:04;9.80;;;2.33;;
4462;SDS011;2244;50.200;8.220;2023-05-10T09:19:32;12.43;;;2.70;;
4462;SDS011;2244;50.200;8.220;2023-05-10T09:21:59;9.43;;;2.40;;
4462;SDS011;2244;50.200;8.220;2023-05-10T09:24:29;11.77;;;2.40;;
4462;SDS011;2244;50.200;8.220;2023-05-10T09:26:57;8.83;;;2.03;;
4462;SDS011;2244;50.200;8.220;2023-05-10T09:29:25;9.90;;;2.17;;
4462;SDS011;2244;50.200;8.220;2023-05-10T09:31:52;11.23;;;1.73;;
4462;SDS011;2244;50.200;8.220;2023-05-10T09:34:33;13.40;;;1.97;;
4462;SDS011;2244;50.200;8.220;2023-05-10T09:36:55;8.60;;;1.90;;
4462;SDS011;2244;50.200;8.220;2023-05-10T09:39:40;11.70;;;1.50;;
4462;SDS011;2244;50.200;8.220;2023-05-10T09:42:05;9.83;;;1.40;;
4462;SDS011;2244;50.200;8.220;2023-05-10T09:44:33;9.27;;;1.17;;
4462;SDS011;2244;50.200;8.220;2023-05-10T09:47:01;8.90;;;1.30;;
4462;SDS011;2244;50.200;8.220;2023-05-10T09:49:28;9.83;;;1.37;;
4462;SDS011;2244;50.200;8.220;2023-05-10T09:52:03;11.93;;;1.90;;
4462;SDS011;2244;50.200;8.220;2023-05-10T09:54:31;8.17;;;1.33;;
4462;SDS011;2244;50.200;8.220;2023-05-10T09:56:58;9.80;;;1.43;;
4462;SDS011;2244;50.200;8.220;2023-05-10T09:59:26;10.97;;;1.57;;
4462;SDS011;2244;50.200;8.220;2023-05-10T10:01:57;8.30;;;1.67;;
4462;SDS011;2244;50.200;8.220;2023-05-10T10:04:27;9.47;;;1.50;;
4462;SDS011;2244;50.200;8.220;2023-05-10T10:07:01;8.90;;;1.43;;
4462;SDS011;2244;50.200;8.220;2023-05-10T10:09:29;7.97;;;0.97;;
4462;SDS011;2244;50.200;8.220;2023-05-10T10:11:57;9.73;;;1.30;;
4462;SDS011;2244;50.200;8.220;2023-05-10T10:14:25;8.80;;;1.57;;
4462;SDS011;2244;50.200;8.220;2023-05-10T10:16:52;8.90;;;1.10;;
4462;SDS011;2244;50.200;8.220;2023-05-10T10:19:21;9.20;;;1.13;;
4462;SDS011;2244;50.200;8.220;2023-05-10T10:21:49;8.30;;;1.37;;
4462;SDS011;2244;50.200;8.220;2023-05-10T10:24:17;7.27;;;1.00;;
4462;SDS011;2244;50.200;8.220;2023-05-10T10:26:44;10.70;;;1.13;;
4462;SDS011;2244;50.200;8.220;2023-05-10T10:34:28;7.20;;;0.83;;
4462;SDS011;2244;50.200;8.220;2023-05-10T10:36:57;10.70;;;0.87;;
4462;SDS011;2244;50.200;8.220;2023-05-10T10:39:24;14.73;;;0.90;;
4462;SDS011;2244;50.200;8.220;2023-05-10T10:41:55;10.83;;;1.10;;
4462;SDS011;2244;50.200;8.220;2023-05-10T10:49:52;12.00;;;0.90;;
4462;SDS011;2244;50.200;8.220;2023-05-10T10:54:56;8.37;;;0.97;;
4462;SDS011;2244;50.200;8.220;2023-05-10T10:57:22;9.10;;;1.00;;
4462;SDS011;2244;50.200;8.220;2023-05-10T10:59:49;8.90;;;0.90;;
4462;SDS011;2244;50.200;8.220;2023-05-10T11:03:04;8.90;;;0.80;;
4462;SDS011;2244;50.200;8.220;2023-05-10T11:04:46;7.60;;;1.10;;
4462;SDS011;2244;50.200;8.220;2023-05-10T11:07:16;9.00;;;0.83;;
4462;SDS011;2244;50.200;8.220;2023-05-10T11:09:44;10.57;;;1.03;;
4462;SDS011;2244;50.200;8.220;2023-05-10T11:12:12;8.17;;;0.90;;
4462;SDS011;2244;50.200;8.220;2023-05-10T11:14:40;7.10;;;0.83;;
4462;SDS011;2244;50.200;8.220;2023-05-10T11:17:23;6.97;;;0.70;;
4462;SDS011;2244;50.200;8.220;2023-05-10T11:20:09;6.93;;;0.80;;
4462;SDS011;2244;50.200;8.220;2023-05-10T11:22:49;7.30;;;1.00;;
4462;SDS011;2244;50.200;8.220;2023-05-10T11:25:18;8.00;;;0.87;;
4462;SDS011;2244;50.200;8.220;2023-05-10T11:27:47;9.27;;;1.13;;
4462;SDS011;2244;50.200;8.220;2023-05-10T11:30:14;8.63;;;0.90;;
4462;SDS011;2244;50.200;8.220;2023-05-10T11:32:42;7.33;;;0.90;;
4462;SDS011;2244;50.200;8.220;2023-05-10T11:35:10;7.80;;;0.83;;
4462;SDS011;2244;50.200;8.220;2023-05-10T11:37:41;8.03;;;0.87;;
4462;SDS011;2244;50.200;8.220;2023-05-10T11:40:10;6.87;;;0.80;;
4462;SDS011;2244;50.200;8.220;2023-05-10T11:42:37;9.07;;;0.97;;
4462;SDS011;2244;50.200;8.220;2023-05-10T11:45:05;8.70;;;0.93;;
4462;SDS011;2244;50.200;8.220;2023-05-10T11:47:33;7.83;;;1.00;;
4462;SDS011;2244;50.200;8.220;2023-05-10T11:50:02;11.13;;;0.80;;
4462;SDS011;2244;50.200;8.220;2023-05-10T11:52:29;7.60;;;0.83;;
4462;SDS011;2244;50.200;8.220;2023-05-10T11:54:58;8.37;;;0.70;;
4462;SDS011;2244;50.200;8.220;2023-05-10T11:57:26;8.50;;;0.80;;
4462;SDS011;2244;50.200;8.220;2023-05-10T11:59:56;7.97;;;0.70;;
4462;SDS011;2244;50.200;8.220;2023-05-10T12:02:23;6.90;;;0.80;;
4462;SDS011;2244;50.200;8.220;2023-05-10T12:04:51;7.30;;;0.90;;
4462;SDS011;2244;50.200;8.220;2023-05-10T12:07:18;7.23;;;0.83;;
4462;SDS011;2244;50.200;8.220;2023-05-10T12:12:41;7.03;;;0.60;;
4462;SDS011;2244;50.200;8.220;2023-05-10T12:15:16;6.93;;;0.80;;
4462;SDS011;2244;50.200;8.220;2023-05-10T12:17:38;6.90;;;0.80;;
4462;SDS011;2244;50.200;8.220;2023-05-10T12:22:48;8.90;;;0.70;;
4462;SDS011;2244;50.200;8.220;2023-05-10T12:25:12;9.07;;;0.83;;
4462;SDS011;2244;50.200;8.220;2023-05-10T12:27:40;7.57;;;0.80;;
4462;SDS011;2244;50.200;8.220;2023-05-10T12:30:08;7.37;;;0.80;;
4462;SDS011;2244;50.200;8.220;2023-05-10T12:32:40;7.83;;;0.80;;
4462;SDS011;2244;50.200;8.220;2023-05-10T12:35:08;7.93;;;0.80;;
4462;SDS011;2244;50.200;8.220;2023-05-10T12:37:35;6.83;;;0.70;;
4462;SDS011;2244;50.200;8.220;2023-05-10T12:40:08;7.37;;;0.70;;
4462;SDS011;2244;50.200;8.220;2023-05-10T12:42:35;7.37;;;0.80;;
4462;SDS011;2244;50.200;8.220;2023-05-10T12:45:03;7.70;;;1.10;;
4462;SDS011;2244;50.200;8.220;2023-05-10T12:47:36;7.57;;;0.80;;
4462;SDS011;2244;50.200;8.220;2023-05-10T12:50:06;15.00;;;0.90;;
4462;SDS011;2244;50.200;8.220;2023-05-10T12:52:33;7.20;;;0.80;;
4462;SDS011;2244;50.200;8.220;2023-05-10T12:55:01;7.53;;;0.80;;
4462;SDS011;2244;50.200;8.220;2023-05-10T12:57:29;6.83;;;0.70;;
4462;SDS011;2244;50.200;8.220;2023-05-10T12:59:57;8.27;;;0.60;;
4462;SDS011;2244;50.200;8.220;2023-05-10T13:02:24;10.70;;;0.90;;
4462;SDS011;2244;50.200;8.220;2023-05-10T13:04:52;10.40;;;0.90;;
4462;SDS011;2244;50.200;8.220;2023-05-10T13:07:19;7.80;;;0.90;;
4462;SDS011;2244;50.200;8.220;2023-05-10T13:09:47;9.30;;;0.87;;
4462;SDS011;2244;50.200;8.220;2023-05-10T13:12:14;7.50;;;0.90;;
4462;SDS011;2244;50.200;8.220;2023-05-10T13:14:41;9.67;;;0.90;;
4462;SDS011;2244;50.200;8.220;2023-05-10T13:17:09;11.23;;;1.00;;
4462;SDS011;2244;50.200;8.220;2023-05-10T13:19:36;9.10;;;1.07;;
4462;SDS011;2244;50.200;8.220;2023-05-10T13:22:05;7.07;;;0.93;;
4462;SDS011;2244;50.200;8.220;2023-05-10T13:24:32;7.03;;;0.90;;
4462;SDS011;2244;50.200;8.220;2023-05-10T13:27:00;7.20;;;0.80;;
4462;SDS011;2244;50.200;8.220;2023-05-10T13:29:27;8.47;;;1.20;;
4462;SDS011;2244;50.200;8.220;2023-05-10T13:31:55;6.90;;;0.80;;
4462;SDS011;2244;50.200;8.220;2023-05-10T13:34:22;11.17;;;1.20;;
4462;SDS011;2244;50.200;8.220;2023-05-10T13:36:50;7.60;;;0.83;;
4462;SDS011;2244;50.200;8.220;2023-05-10T13:39:19;7.07;;;0.90;;
4462;SDS011;2244;50.200;8.220;2023-05-10T13:41:47;8.07;;;1.07;;
4462;SDS011;2244;50.200;8.220;2023-05-10T13:44:15;7.50;;;1.00;;
4462;SDS011;2244;50.200;8.220;2023-05-10T13:46:42;7.80;;;0.90;;
4462;SDS011;2244;50.200;8.220;2023-05-10T13:49:10;7.33;;;1.13;;
4462;SDS011;2244;50.200;8.220;2023-05-10T13:51:37;8.60;;;1.10;;
4462;SDS011;2244;50.200;8.220;2023-05-10T13:54:04;7.67;;;0.83;;
4462;SDS011;2244;50.200;8.220;2023-05-10T13:56:32;6.97;;;0.80;;
4462;SDS011;2244;50.200;8.220;2023-05-10T13:58:59;7.30;;;0.73;;
4462;SDS011;2244;50.200;8.220;2023-05-10T14:01:27;14.03;;;1.30;;
4462;SDS011;2244;50.200;8.220;2023-05-10T14:03:54;8.93;;;0.90;;
4462;SDS011;2244;50.200;8.220;2023-05-10T14:06:22;7.40;;;0.80;;
4462;SDS011;2244;50.200;8.220;2023-05-10T14:08:49;7.17;;;0.80;;
4462;SDS011;2244;50.200;8.220;2023-05-10T14:11:16;9.83;;;0.90;;
4462;SDS011;2244;50.200;8.220;2023-05-10T14:13:44;7.50;;;1.00;;
4462;SDS011;2244;50.200;8.220;2023-05-10T14:16:11;10.50;;;0.97;;
4462;SDS011;2244;50.200;8.220;2023-05-10T14:18:40;6.80;;;0.77;;
4462;SDS011;2244;50.200;8.220;2023-05-10T14:21:08;7.90;;;1.00;;
4462;SDS011;2244;50.200;8.220;2023-05-10T14:23:35;7.50;;;1.10;;
4462;SDS011;2244;50.200;8.220;2023-05-10T14:26:03;7.17;;;0.97;;
4462;SDS011;2244;50.200;8.220;2023-05-10T14:28:30;8.20;;;1.20;;
4462;SDS011;2244;50.200;8.220;2023-05-10T14:30:58;8.23;;;0.97;;
4462;SDS011;2244;50.200;8.220;2023-05-10T14:33:25;8.60;;;0.97;;
4462;SDS011;2244;50.200;8.220;2023-05-10T14:35:53;7.20;;;0.90;;
4462;SDS011;2244;50.200;8.220;2023-05-10T14:38:22;8.77;;;1.10;;
4462;SDS011;2244;50.200;8.220;2023-05-10T14:40:50;7.83;;;0.90;;
4462;SDS011;2244;50.200;8.220;2023-05-10T14:43:17;6.87;;;1.00;;
4462;SDS011;2244;50.200;8.220;2023-05-10T14:45:45;6.90;;;0.90;;
4462;SDS011;2244;50.200;8.220;2023-05-10T14:48:12;7.30;;;1.00;;
4462;SDS011;2244;50.200;8.220;2023-05-10T14:50:42;7.80;;;1.00;;
4462;SDS011;2244;50.200;8.220;2023-05-10T14:53:09;6.90;;;0.90;;
4462;SDS011;2244;50.200;8.220;2023-05-10T14:55:36;6.93;;;1.00;;
4462;SDS011;2244;50.200;8.220;2023-05-10T14:58:05;7.13;;;1.00;;
4462;SDS011;2244;50.200;8.220;2023-05-10T15:00:32;6.67;;;0.80;;
4462;SDS011;2244;50.200;8.220;2023-05-10T15:03:00;6.87;;;0.90;;
4462;SDS011;2244;50.200;8.220;2023-05-10T15:05:28;7.13;;;1.20;;
4462;SDS011;2244;50.200;8.220;2023-05-10T15:07:56;9.10;;;1.00;;
4462;SDS011;2244;50.200;8.220;2023-05-10T15:10:23;6.80;;;0.80;;
4462;SDS011;2244;50.200;8.220;2023-05-10T15:12:51;7.20;;;0.93;;
4462;SDS011;2244;50.200;8.220;2023-05-10T15:15:19;6.97;;;1.00;;
4462;SDS011;2244;50.200;8.220;2023-05-10T15:17:47;7.03;;;0.90;;
4462;SDS011;2244;50.200;8.220;2023-05-10T15:20:15;8.80;;;1.03;;
4462;SDS011;2244;50.200;8.220;2023-05-10T15:22:42;7.60;;;1.00;;
4462;SDS011;2244;50.200;8.220;2023-05-10T15:25:09;8.90;;;0.97;;
4462;SDS011;2244;50.200;8.220;2023-05-10T15:27:37;7.60;;;1.20;;
4462;SDS011;2244;50.200;8.220;2023-05-10T15:30:04;8.67;;;1.00;;
4462;SDS011;2244;50.200;8.220;2023-05-10T15:32:32;7.17;;;1.13;;
4462;SDS011;2244;50.200;8.220;2023-05-10T15:35:00;8.80;;;1.27;;
4462;SDS011;2244;50.200;8.220;2023-05-10T15:37:27;7.47;;;1.10;;
4462;SDS011;2244;50.200;8.220;2023-05-10T15:39:54;8.17;;;0.90;;
4462;SDS011;2244;50.200;8.220;2023-05-10T15:42:23;9.00;;;1.20;;